sensor_id;sensor_type;location;lat;lon;timestamp;temperature;humidity
70089;HTU21D;57460;47.134;19.888;2023-04-01T00:00:50;12.80;70.78
70089;HTU21D;57460;47.134;19.888;2023-04-01T00:03:16;12.80;71.58
70089;HTU21D;57460;47.134;19.888;2023-04-01T00:05:42;12.87;72.00
70089;HTU21D;57460;47.134;19.888;2023-04-01T00:08:08;12.86;71.27
70089;HTU21D;57460;47.134;19.888;2023-04-01T00:10:34;12.86;72.86
70089;HTU21D;57460;47.134;19.888;2023-04-01T00:12:59;12.86;72.49
70089;HTU21D;57460;47.134;19.888;2023-04-01T00:15:25;12.84;71.71
70089;HTU21D;57460;47.134;19.888;2023-04-01T00:17:51;12.82;71.19
70089;HTU21D;57460;47.134;19.888;2023-04-01T00:20:17;12.81;73.57
70089;HTU21D;57460;47.134;19.888;2023-04-01T00:22:43;12.79;71.77
70089;HTU21D;57460;47.134;19.888;2023-04-01T00:25:09;12.79;72.92
70089;HTU21D;57460;47.134;19.888;2023-04-01T00:27:35;12.73;71.71
70089;HTU21D;57460;47.134;19.888;2023-04-01T00:30:00;12.69;73.28
70089;HTU21D;57460;47.134;19.888;2023-04-01T00:32:26;12.73;70.89
70089;HTU21D;57460;47.134;19.888;2023-04-01T00:34:52;12.69;72.08
70089;HTU21D;57460;47.134;19.888;2023-04-01T00:37:19;12.58;72.05
70089;HTU21D;57460;47.134;19.888;2023-04-01T00:39:46;12.59;71.32
70089;HTU21D;57460;47.134;19.888;2023-04-01T00:42:12;12.61;71.60
70089;HTU21D;57460;47.134;19.888;2023-04-01T00:44:39;12.67;72.03
70089;HTU21D;57460;47.134;19.888;2023-04-01T00:47:06;12.69;72.06
70089;HTU21D;57460;47.134;19.888;2023-04-01T00:49:42;12.64;72.58
70089;HTU21D;57460;47.134;19.888;2023-04-01T00:52:13;12.69;72.51
70089;HTU21D;57460;47.134;19.888;2023-04-01T00:54:45;12.71;72.83
70089;HTU21D;57460;47.134;19.888;2023-04-01T00:57:25;12.73;71.82
70089;HTU21D;57460;47.134;19.888;2023-04-01T00:59:55;12.77;71.12
70089;HTU21D;57460;47.134;19.888;2023-04-01T01:02:22;12.78;71.07
70089;HTU21D;57460;47.134;19.888;2023-04-01T01:04:47;12.75;72.03
70089;HTU21D;57460;47.134;19.888;2023-04-01T01:12:44;12.56;72.70
70089;HTU21D;57460;47.134;19.888;2023-04-01T01:15:21;12.56;72.23
70089;HTU21D;57460;47.134;19.888;2023-04-01T01:18:03;12.58;70.94
70089;HTU21D;57460;47.134;19.888;2023-04-01T01:31:55;12.18;73.66
70089;HTU21D;57460;47.134;19.888;2023-04-01T01:37:15;12.31;71.86
70089;HTU21D;57460;47.134;19.888;2023-04-01T01:39:45;12.37;71.85
70089;HTU21D;57460;47.134;19.888;2023-04-01T01:42:16;12.27;73.37
70089;HTU21D;57460;47.134;19.888;2023-04-01T01:44:47;12.28;72.79
70089;HTU21D;57460;47.134;19.888;2023-04-01T01:47:16;12.28;73.43
70089;HTU21D;57460;47.134;19.888;2023-04-01T01:49:44;12.22;73.96
70089;HTU21D;57460;47.134;19.888;2023-04-01T01:52:12;12.28;72.02
70089;HTU21D;57460;47.134;19.888;2023-04-01T01:54:56;12.20;74.22
70089;HTU21D;57460;47.134;19.888;2023-04-01T01:57:31;12.23;72.52
70089;HTU21D;57460;47.134;19.888;2023-04-01T02:00:07;12.17;73.99
70089;HTU21D;57460;47.134;19.888;2023-04-01T02:02:44;12.15;73.81
70089;HTU21D;57460;47.134;19.888;2023-04-01T02:05:20;12.22;73.04
70089;HTU21D;57460;47.134;19.888;2023-04-01T02:08:01;12.20;73.45
70089;HTU21D;57460;47.134;19.888;2023-04-01T02:10:31;12.22;72.92
70089;HTU21D;57460;47.134;19.888;2023-04-01T02:13:07;12.03;74.35
70089;HTU21D;57460;47.134;19.888;2023-04-01T02:15:41;12.15;71.93
70089;HTU21D;57460;47.134;19.888;2023-04-01T02:18:09;12.26;71.74
70089;HTU21D;57460;47.134;19.888;2023-04-01T02:20:38;12.18;72.55
70089;HTU21D;57460;47.134;19.888;2023-04-01T02:23:07;12.30;71.35
70089;HTU21D;57460;47.134;19.888;2023-04-01T02:25:37;12.20;73.19
70089;HTU21D;57460;47.134;19.888;2023-04-01T02:28:09;12.20;72.87
70089;HTU21D;57460;47.134;19.888;2023-04-01T02:30:39;12.31;71.82
70089;HTU21D;57460;47.134;19.888;2023-04-01T02:33:07;12.29;71.48
70089;HTU21D;57460;47.134;19.888;2023-04-01T02:35:36;12.19;72.03
70089;HTU21D;57460;47.134;19.888;2023-04-01T02:38:03;12.17;73.24
70089;HTU21D;57460;47.134;19.888;2023-04-01T02:40:39;12.15;72.50
70089;HTU21D;57460;47.134;19.888;2023-04-01T02:43:05;12.16;72.77
70089;HTU21D;57460;47.134;19.888;2023-04-01T02:45:31;12.01;74.21
70089;HTU21D;57460;47.134;19.888;2023-04-01T02:48:09;11.83;75.76
70089;HTU21D;57460;47.134;19.888;2023-04-01T02:50:35;11.86;74.13
70089;HTU21D;57460;47.134;19.888;2023-04-01T02:53:01;11.74;75.95
70089;HTU21D;57460;47.134;19.888;2023-04-01T02:55:29;11.77;74.91
70089;HTU21D;57460;47.134;19.888;2023-04-01T02:57:56;11.81;75.52
70089;HTU21D;57460;47.134;19.888;2023-04-01T03:00:22;11.81;74.71
70089;HTU21D;57460;47.134;19.888;2023-04-01T03:02:48;11.90;73.09
70089;HTU21D;57460;47.134;19.888;2023-04-01T03:05:14;11.90;73.73
70089;HTU21D;57460;47.134;19.888;2023-04-01T03:07:40;11.94;73.17
70089;HTU21D;57460;47.134;19.888;2023-04-01T03:10:06;11.92;73.18
70089;HTU21D;57460;47.134;19.888;2023-04-01T03:12:32;11.92;73.24
70089;HTU21D;57460;47.134;19.888;2023-04-01T03:14:58;11.89;73.81
70089;HTU21D;57460;47.134;19.888;2023-04-01T03:17:24;11.99;72.61
70089;HTU21D;57460;47.134;19.888;2023-04-01T03:19:49;11.85;73.32
70089;HTU21D;57460;47.134;19.888;2023-04-01T03:22:18;11.75;73.92
70089;HTU21D;57460;47.134;19.888;2023-04-01T03:24:47;11.77;72.70
70089;HTU21D;57460;47.134;19.888;2023-04-01T03:27:13;11.68;74.47
70089;HTU21D;57460;47.134;19.888;2023-04-01T03:29:39;11.70;72.96
70089;HTU21D;57460;47.134;19.888;2023-04-01T03:32:05;11.64;73.17
70089;HTU21D;57460;47.134;19.888;2023-04-01T03:34:31;11.48;74.64
70089;HTU21D;57460;47.134;19.888;2023-04-01T03:36:57;11.41;74.24
70089;HTU21D;57460;47.134;19.888;2023-04-01T03:39:24;11.44;73.48
70089;HTU21D;57460;47.134;19.888;2023-04-01T03:41:50;11.39;74.28
70089;HTU21D;57460;47.134;19.888;2023-04-01T03:44:16;11.42;73.54
70089;HTU21D;57460;47.134;19.888;2023-04-01T03:46:42;11.44;73.48
70089;HTU21D;57460;47.134;19.888;2023-04-01T03:49:11;11.41;73.80
70089;HTU21D;57460;47.134;19.888;2023-04-01T03:51:38;11.46;73.51
70089;HTU21D;57460;47.134;19.888;2023-04-01T03:54:04;11.30;74.23
70089;HTU21D;57460;47.134;19.888;2023-04-01T03:56:32;11.27;73.96
70089;HTU21D;57460;47.134;19.888;2023-04-01T03:58:58;11.15;76.67
70089;HTU21D;57460;47.134;19.888;2023-04-01T04:01:26;11.22;74.45
70089;HTU21D;57460;47.134;19.888;2023-04-01T04:03:52;11.27;73.19
70089;HTU21D;57460;47.134;19.888;2023-04-01T04:06:19;11.26;73.87
70089;HTU21D;57460;47.134;19.888;2023-04-01T04:08:45;11.22;73.38
70089;HTU21D;57460;47.134;19.888;2023-04-01T04:11:12;10.97;76.77
70089;HTU21D;57460;47.134;19.888;2023-04-01T04:13:38;10.99;76.73
70089;HTU21D;57460;47.134;19.888;2023-04-01T04:16:04;11.00;75.12
70089;HTU21D;57460;47.134;19.888;2023-04-01T04:18:30;10.88;76.84
70089;HTU21D;57460;47.134;19.888;2023-04-01T04:20:56;10.88;76.85
70089;HTU21D;57460;47.134;19.888;2023-04-01T04:23:22;10.95;75.34
70089;HTU21D;57460;47.134;19.888;2023-04-01T04:25:58;10.83;76.58
70089;HTU21D;57460;47.134;19.888;2023-04-01T04:28:25;10.94;74.38
70089;HTU21D;57460;47.134;19.888;2023-04-01T04:30:52;10.79;77.41
70089;HTU21D;57460;47.134;19.888;2023-04-01T04:33:18;10.82;75.92
70089;HTU21D;57460;47.134;19.888;2023-04-01T04:35:44;10.81;77.13
70089;HTU21D;57460;47.134;19.888;2023-04-01T04:38:10;10.74;77.55
70089;HTU21D;57460;47.134;19.888;2023-04-01T04:40:37;10.83;75.97
70089;HTU21D;57460;47.134;19.888;2023-04-01T04:43:03;10.88;75.44
70089;HTU21D;57460;47.134;19.888;2023-04-01T04:45:29;10.95;75.54
70089;HTU21D;57460;47.134;19.888;2023-04-01T04:47:56;10.99;74.96
70089;HTU21D;57460;47.134;19.888;2023-04-01T04:50:22;10.97;76.46
70089;HTU21D;57460;47.134;19.888;2023-04-01T04:52:47;10.96;76.08
70089;HTU21D;57460;47.134;19.888;2023-04-01T04:55:13;11.02;75.33
70089;HTU21D;57460;47.134;19.888;2023-04-01T04:57:40;11.11;75.67
70089;HTU21D;57460;47.134;19.888;2023-04-01T05:00:06;11.16;74.69
70089;HTU21D;57460;47.134;19.888;2023-04-01T05:02:33;11.17;75.63
70089;HTU21D;57460;47.134;19.888;2023-04-01T05:04:59;11.15;75.44
70089;HTU21D;57460;47.134;19.888;2023-04-01T05:07:25;11.29;74.45
70089;HTU21D;57460;47.134;19.888;2023-04-01T05:09:51;11.32;74.09
70089;HTU21D;57460;47.134;19.888;2023-04-01T05:12:16;11.40;74.09
70089;HTU21D;57460;47.134;19.888;2023-04-01T05:14:42;11.39;74.81
70089;HTU21D;57460;47.134;19.888;2023-04-01T05:17:09;11.59;73.50
70089;HTU21D;57460;47.134;19.888;2023-04-01T05:19:36;11.70;73.19
70089;HTU21D;57460;47.134;19.888;2023-04-01T05:22:01;11.69;73.85
70089;HTU21D;57460;47.134;19.888;2023-04-01T05:24:27;11.93;72.41
70089;HTU21D;57460;47.134;19.888;2023-04-01T05:26:53;11.84;73.12
70089;HTU21D;57460;47.134;19.888;2023-04-01T05:29:22;12.03;72.35
70089;HTU21D;57460;47.134;19.888;2023-04-01T05:31:49;12.12;72.25
70089;HTU21D;57460;47.134;19.888;2023-04-01T05:34:14;12.03;72.77
70089;HTU21D;57460;47.134;19.888;2023-04-01T05:36:40;12.25;72.12
70089;HTU21D;57460;47.134;19.888;2023-04-01T05:39:07;12.57;71.01
70089;HTU21D;57460;47.134;19.888;2023-04-01T05:41:37;12.52;71.19
70089;HTU21D;57460;47.134;19.888;2023-04-01T05:44:04;12.65;71.01
70089;HTU21D;57460;47.134;19.888;2023-04-01T05:46:34;12.73;70.57
70089;HTU21D;57460;47.134;19.888;2023-04-01T05:48:59;12.82;70.23
70089;HTU21D;57460;47.134;19.888;2023-04-01T05:51:25;12.94;69.86
70089;HTU21D;57460;47.134;19.888;2023-04-01T05:53:51;12.89;69.95
70089;HTU21D;57460;47.134;19.888;2023-04-01T05:56:17;13.08;69.58
70089;HTU21D;57460;47.134;19.888;2023-04-01T05:58:42;13.06;69.70
70089;HTU21D;57460;47.134;19.888;2023-04-01T06:01:17;13.08;68.64
70089;HTU21D;57460;47.134;19.888;2023-04-01T06:03:44;13.33;69.23
70089;HTU21D;57460;47.134;19.888;2023-04-01T06:06:25;13.56;67.63
70089;HTU21D;57460;47.134;19.888;2023-04-01T06:08:53;13.52;67.88
70089;HTU21D;57460;47.134;19.888;2023-04-01T06:14:51;13.73;65.93
70089;HTU21D;57460;47.134;19.888;2023-04-01T06:28:43;13.55;65.84
70089;HTU21D;57460;47.134;19.888;2023-04-01T06:45:03;13.79;65.46
70089;HTU21D;57460;47.134;19.888;2023-04-01T06:47:35;13.81;65.85
70089;HTU21D;57460;47.134;19.888;2023-04-01T06:55:50;13.84;65.85
70089;HTU21D;57460;47.134;19.888;2023-04-01T06:58:31;13.81;65.88
70089;HTU21D;57460;47.134;19.888;2023-04-01T07:01:07;13.67;65.27
70089;HTU21D;57460;47.134;19.888;2023-04-01T07:03:41;13.67;65.03
70089;HTU21D;57460;47.134;19.888;2023-04-01T07:06:16;13.83;63.57
70089;HTU21D;57460;47.134;19.888;2023-04-01T07:08:48;13.69;64.43
70089;HTU21D;57460;47.134;19.888;2023-04-01T07:11:25;13.61;65.22
70089;HTU21D;57460;47.134;19.888;2023-04-01T07:17:23;13.59;64.79
70089;HTU21D;57460;47.134;19.888;2023-04-01T07:20:18;13.58;64.53
70089;HTU21D;57460;47.134;19.888;2023-04-01T07:22:48;13.66;64.08
70089;HTU21D;57460;47.134;19.888;2023-04-01T07:25:22;13.62;64.02
70089;HTU21D;57460;47.134;19.888;2023-04-01T07:27:53;13.56;64.34
70089;HTU21D;57460;47.134;19.888;2023-04-01T07:30:22;13.50;64.89
70089;HTU21D;57460;47.134;19.888;2023-04-01T07:32:56;13.53;64.76
70089;HTU21D;57460;47.134;19.888;2023-04-01T07:35:28;13.35;64.84
70089;HTU21D;57460;47.134;19.888;2023-04-01T07:38:15;13.39;64.81
70089;HTU21D;57460;47.134;19.888;2023-04-01T07:46:45;13.68;63.63
70089;HTU21D;57460;47.134;19.888;2023-04-01T07:49:29;13.73;63.85
70089;HTU21D;57460;47.134;19.888;2023-04-01T07:52:10;13.74;64.29
70089;HTU21D;57460;47.134;19.888;2023-04-01T07:54:52;13.94;62.70
70089;HTU21D;57460;47.134;19.888;2023-04-01T08:06:27;13.83;63.55
70089;HTU21D;57460;47.134;19.888;2023-04-01T08:14:54;14.04;63.50
70089;HTU21D;57460;47.134;19.888;2023-04-01T08:20:00;14.32;62.57
70089;HTU21D;57460;47.134;19.888;2023-04-01T08:22:41;14.17;62.69
70089;HTU21D;57460;47.134;19.888;2023-04-01T08:25:33;14.33;62.61
70089;HTU21D;57460;47.134;19.888;2023-04-01T08:31:00;14.33;61.50
70089;HTU21D;57460;47.134;19.888;2023-04-01T08:33:30;14.39;62.08
70089;HTU21D;57460;47.134;19.888;2023-04-01T08:39:06;14.47;61.63
70089;HTU21D;57460;47.134;19.888;2023-04-01T08:41:49;14.50;61.97
70089;HTU21D;57460;47.134;19.888;2023-04-01T08:52:37;14.72;60.18
70089;HTU21D;57460;47.134;19.888;2023-04-01T08:58:19;14.74;59.82
70089;HTU21D;57460;47.134;19.888;2023-04-01T09:26:10;15.42;60.12
70089;HTU21D;57460;47.134;19.888;2023-04-01T09:37:21;15.62;58.49
70089;HTU21D;57460;47.134;19.888;2023-04-01T09:40:14;15.75;57.73
70089;HTU21D;57460;47.134;19.888;2023-04-01T09:43:06;15.90;56.87
70089;HTU21D;57460;47.134;19.888;2023-04-01T09:49:13;15.93;56.76
70089;HTU21D;57460;47.134;19.888;2023-04-01T09:57:46;16.21;56.18
70089;HTU21D;57460;47.134;19.888;2023-04-01T10:00:20;16.51;53.96
70089;HTU21D;57460;47.134;19.888;2023-04-01T10:03:07;16.40;55.74
70089;HTU21D;57460;47.134;19.888;2023-04-01T10:06:09;16.73;53.76
70089;HTU21D;57460;47.134;19.888;2023-04-01T10:25:38;17.08;50.69
70089;HTU21D;57460;47.134;19.888;2023-04-01T10:28:43;17.05;49.72
70089;HTU21D;57460;47.134;19.888;2023-04-01T10:34:33;17.11;50.41
70089;HTU21D;57460;47.134;19.888;2023-04-01T10:45:23;17.20;50.07
70089;HTU21D;57460;47.134;19.888;2023-04-01T10:48:20;17.49;50.63
70089;HTU21D;57460;47.134;19.888;2023-04-01T11:11:33;17.82;48.31
70089;HTU21D;57460;47.134;19.888;2023-04-01T11:14:50;17.94;48.08
70089;HTU21D;57460;47.134;19.888;2023-04-01T11:17:42;18.05;47.41
70089;HTU21D;57460;47.134;19.888;2023-04-01T11:26:25;17.80;48.53
70089;HTU21D;57460;47.134;19.888;2023-04-01T11:32:38;17.97;47.18
70089;HTU21D;57460;47.134;19.888;2023-04-01T11:44:22;18.20;45.32
70089;HTU21D;57460;47.134;19.888;2023-04-01T11:50:43;18.00;47.09
70089;HTU21D;57460;47.134;19.888;2023-04-01T11:53:34;17.97;47.27
70089;HTU21D;57460;47.134;19.888;2023-04-01T11:59:08;18.08;46.52
70089;HTU21D;57460;47.134;19.888;2023-04-01T12:07:42;17.74;47.70
70089;HTU21D;57460;47.134;19.888;2023-04-01T12:13:35;18.02;48.56
70089;HTU21D;57460;47.134;19.888;2023-04-01T12:25:05;18.04;46.88
70089;HTU21D;57460;47.134;19.888;2023-04-01T12:31:39;17.87;47.18
70089;HTU21D;57460;47.134;19.888;2023-04-01T12:34:00;17.78;47.36
70089;HTU21D;57460;47.134;19.888;2023-04-01T12:36:42;17.76;47.07
70089;HTU21D;57460;47.134;19.888;2023-04-01T12:39:37;17.73;47.48
70089;HTU21D;57460;47.134;19.888;2023-04-01T12:51:08;17.43;48.60
70089;HTU21D;57460;47.134;19.888;2023-04-01T13:10:13;17.41;48.86
70089;HTU21D;57460;47.134;19.888;2023-04-01T13:15:55;17.56;48.34
70089;HTU21D;57460;47.134;19.888;2023-04-01T13:21:47;17.46;48.70
70089;HTU21D;57460;47.134;19.888;2023-04-01T13:24:41;17.43;48.41
70089;HTU21D;57460;47.134;19.888;2023-04-01T13:27:25;17.35;48.46
70089;HTU21D;57460;47.134;19.888;2023-04-01T13:30:27;17.48;47.56
70089;HTU21D;57460;47.134;19.888;2023-04-01T13:33:15;17.67;47.60
70089;HTU21D;57460;47.134;19.888;2023-04-01T13:39:01;17.67;46.93
70089;HTU21D;57460;47.134;19.888;2023-04-01T13:44:32;17.32;47.89
70089;HTU21D;57460;47.134;19.888;2023-04-01T13:53:09;17.39;46.96
70089;HTU21D;57460;47.134;19.888;2023-04-01T14:04:11;17.26;47.91
70089;HTU21D;57460;47.134;19.888;2023-04-01T14:06:57;17.58;46.26
70089;HTU21D;57460;47.134;19.888;2023-04-01T14:15:15;17.45;47.68
70089;HTU21D;57460;47.134;19.888;2023-04-01T14:32:27;17.43;47.12
70089;HTU21D;57460;47.134;19.888;2023-04-01T14:43:47;17.66;45.83
70089;HTU21D;57460;47.134;19.888;2023-04-01T14:46:36;17.61;45.75
70089;HTU21D;57460;47.134;19.888;2023-04-01T14:49:28;17.69;45.25
70089;HTU21D;57460;47.134;19.888;2023-04-01T14:52:04;17.58;45.43
70089;HTU21D;57460;47.134;19.888;2023-04-01T14:54:36;17.54;45.78
70089;HTU21D;57460;47.134;19.888;2023-04-01T14:57:14;17.61;44.90
70089;HTU21D;57460;47.134;19.888;2023-04-01T15:00:12;17.54;45.77
70089;HTU21D;57460;47.134;19.888;2023-04-01T15:02:56;17.59;45.05
70089;HTU21D;57460;47.134;19.888;2023-04-01T15:05:38;17.43;45.96
70089;HTU21D;57460;47.134;19.888;2023-04-01T15:08:27;17.49;44.90
70089;HTU21D;57460;47.134;19.888;2023-04-01T15:14:16;17.54;45.71
70089;HTU21D;57460;47.134;19.888;2023-04-01T15:22:28;17.64;44.17
70089;HTU21D;57460;47.134;19.888;2023-04-01T15:39:10;17.64;43.56
70089;HTU21D;57460;47.134;19.888;2023-04-01T15:41:58;17.48;44.33
70089;HTU21D;57460;47.134;19.888;2023-04-01T15:47:52;17.39;45.72
70089;HTU21D;57460;47.134;19.888;2023-04-01T15:50:51;17.43;44.69
70089;HTU21D;57460;47.134;19.888;2023-04-01T15:53:35;17.38;45.22
70089;HTU21D;57460;47.134;19.888;2023-04-01T15:56:28;17.39;45.10
70089;HTU21D;57460;47.134;19.888;2023-04-01T16:02:07;17.43;44.70
70089;HTU21D;57460;47.134;19.888;2023-04-01T16:08:09;17.19;44.77
70089;HTU21D;57460;47.134;19.888;2023-04-01T16:13:49;17.00;44.56
70089;HTU21D;57460;47.134;19.888;2023-04-01T16:16:53;16.95;45.49
70089;HTU21D;57460;47.134;19.888;2023-04-01T16:22:07;16.80;45.60
70089;HTU21D;57460;47.134;19.888;2023-04-01T16:29:53;16.51;46.85
70089;HTU21D;57460;47.134;19.888;2023-04-01T16:43:39;16.56;47.61
70089;HTU21D;57460;47.134;19.888;2023-04-01T16:46:27;16.52;47.91
70089;HTU21D;57460;47.134;19.888;2023-04-01T16:51:48;16.45;48.21
70089;HTU21D;57460;47.134;19.888;2023-04-01T16:56:55;16.20;49.10
70089;HTU21D;57460;47.134;19.888;2023-04-01T17:02:35;16.00;49.83
70089;HTU21D;57460;47.134;19.888;2023-04-01T17:05:11;15.73;50.49
70089;HTU21D;57460;47.134;19.888;2023-04-01T17:15:53;15.61;50.83
70089;HTU21D;57460;47.134;19.888;2023-04-01T17:27:34;15.31;51.98
70089;HTU21D;57460;47.134;19.888;2023-04-01T17:30:28;15.30;52.01
70089;HTU21D;57460;47.134;19.888;2023-04-01T17:35:32;15.12;52.60
70089;HTU21D;57460;47.134;19.888;2023-04-01T17:38:17;15.04;52.83
70089;HTU21D;57460;47.134;19.888;2023-04-01T17:41:05;14.94;53.04
70089;HTU21D;57460;47.134;19.888;2023-04-01T17:46:20;14.83;53.41
70089;HTU21D;57460;47.134;19.888;2023-04-01T17:49:11;14.74;53.65
70089;HTU21D;57460;47.134;19.888;2023-04-01T17:54:39;14.63;53.78
70089;HTU21D;57460;47.134;19.888;2023-04-01T18:00:40;14.55;53.85
70089;HTU21D;57460;47.134;19.888;2023-04-01T18:08:53;14.45;53.96
70089;HTU21D;57460;47.134;19.888;2023-04-01T18:14:36;14.15;54.40
70089;HTU21D;57460;47.134;19.888;2023-04-01T18:23:04;14.18;54.23
70089;HTU21D;57460;47.134;19.888;2023-04-01T18:25:39;14.17;54.20
70089;HTU21D;57460;47.134;19.888;2023-04-01T18:28:47;14.03;54.46
70089;HTU21D;57460;47.134;19.888;2023-04-01T18:31:20;13.84;54.94
70089;HTU21D;57460;47.134;19.888;2023-04-01T18:34:38;13.77;55.61
70089;HTU21D;57460;47.134;19.888;2023-04-01T18:39:57;13.61;56.12
70089;HTU21D;57460;47.134;19.888;2023-04-01T18:43:08;13.47;56.71
70089;HTU21D;57460;47.134;19.888;2023-04-01T18:45:51;13.34;56.77
70089;HTU21D;57460;47.134;19.888;2023-04-01T18:48:51;13.29;56.75
70089;HTU21D;57460;47.134;19.888;2023-04-01T18:54:23;13.25;56.48
70089;HTU21D;57460;47.134;19.888;2023-04-01T18:57:09;13.19;57.08
70089;HTU21D;57460;47.134;19.888;2023-04-01T18:59:42;13.18;56.94
70089;HTU21D;57460;47.134;19.888;2023-04-01T19:02:48;13.15;57.32
70089;HTU21D;57460;47.134;19.888;2023-04-01T19:05:18;13.08;57.72
70089;HTU21D;57460;47.134;19.888;2023-04-01T19:07:49;12.95;58.24
70089;HTU21D;57460;47.134;19.888;2023-04-01T19:10:37;12.89;58.06
70089;HTU21D;57460;47.134;19.888;2023-04-01T19:13:33;12.76;58.77
70089;HTU21D;57460;47.134;19.888;2023-04-01T19:16:32;12.72;58.79
70089;HTU21D;57460;47.134;19.888;2023-04-01T19:22:01;12.60;59.17
70089;HTU21D;57460;47.134;19.888;2023-04-01T19:27:29;12.55;59.41
70089;HTU21D;57460;47.134;19.888;2023-04-01T19:33:42;12.45;59.90
70089;HTU21D;57460;47.134;19.888;2023-04-01T19:49:53;12.29;58.85
70089;HTU21D;57460;47.134;19.888;2023-04-01T19:52:33;12.22;59.72
70089;HTU21D;57460;47.134;19.888;2023-04-01T19:58:03;12.15;58.59
70089;HTU21D;57460;47.134;19.888;2023-04-01T20:00:44;12.13;58.70
70089;HTU21D;57460;47.134;19.888;2023-04-01T20:03:40;12.08;60.12
70089;HTU21D;57460;47.134;19.888;2023-04-01T20:11:28;12.02;59.50
70089;HTU21D;57460;47.134;19.888;2023-04-01T20:17:11;11.93;61.02
70089;HTU21D;57460;47.134;19.888;2023-04-01T20:23:15;11.99;60.63
70089;HTU21D;57460;47.134;19.888;2023-04-01T20:26:02;11.94;60.54
70089;HTU21D;57460;47.134;19.888;2023-04-01T20:28:42;11.96;60.04
70089;HTU21D;57460;47.134;19.888;2023-04-01T20:39:52;11.91;60.41
70089;HTU21D;57460;47.134;19.888;2023-04-01T20:51:21;11.77;59.99
70089;HTU21D;57460;47.134;19.888;2023-04-01T20:56:57;11.68;61.60
70089;HTU21D;57460;47.134;19.888;2023-04-01T21:02:29;11.57;61.52
70089;HTU21D;57460;47.134;19.888;2023-04-01T21:18:42;11.37;61.47
70089;HTU21D;57460;47.134;19.888;2023-04-01T21:22:12;11.38;62.04
70089;HTU21D;57460;47.134;19.888;2023-04-01T21:28:05;11.41;60.54
70089;HTU21D;57460;47.134;19.888;2023-04-01T21:45:36;11.27;61.42
70089;HTU21D;57460;47.134;19.888;2023-04-01T21:50:55;11.20;61.18
70089;HTU21D;57460;47.134;19.888;2023-04-01T21:56:15;11.14;61.92
70089;HTU21D;57460;47.134;19.888;2023-04-01T22:02:12;11.08;60.96
70089;HTU21D;57460;47.134;19.888;2023-04-01T22:04:57;11.11;61.73
70089;HTU21D;57460;47.134;19.888;2023-04-01T22:07:38;11.05;63.20
70089;HTU21D;57460;47.134;19.888;2023-04-01T22:18:50;10.93;62.28
70089;HTU21D;57460;47.134;19.888;2023-04-01T22:29:38;10.78;62.50
70089;HTU21D;57460;47.134;19.888;2023-04-01T22:35:04;10.77;62.10
70089;HTU21D;57460;47.134;19.888;2023-04-01T22:37:33;10.73;64.63
70089;HTU21D;57460;47.134;19.888;2023-04-01T22:40:30;10.75;65.06
70089;HTU21D;57460;47.134;19.888;2023-04-01T22:48:45;10.72;63.87
70089;HTU21D;57460;47.134;19.888;2023-04-01T22:51:19;10.73;65.11
70089;HTU21D;57460;47.134;19.888;2023-04-01T22:54:14;10.71;64.87
70089;HTU21D;57460;47.134;19.888;2023-04-01T22:57:03;10.65;65.52
70089;HTU21D;57460;47.134;19.888;2023-04-01T23:00:00;10.50;66.06
70089;HTU21D;57460;47.134;19.888;2023-04-01T23:02:37;10.63;63.96
70089;HTU21D;57460;47.134;19.888;2023-04-01T23:05:11;10.53;65.06
70089;HTU21D;57460;47.134;19.888;2023-04-01T23:08:01;10.80;62.68
70089;HTU21D;57460;47.134;19.888;2023-04-01T23:10:41;10.80;62.73
70089;HTU21D;57460;47.134;19.888;2023-04-01T23:13:16;10.98;62.24
70089;HTU21D;57460;47.134;19.888;2023-04-01T23:15:44;11.02;62.21
70089;HTU21D;57460;47.134;19.888;2023-04-01T23:18:15;10.90;63.43
70089;HTU21D;57460;47.134;19.888;2023-04-01T23:26:02;10.93;62.59
70089;HTU21D;57460;47.134;19.888;2023-04-01T23:31:02;10.99;62.35
70089;HTU21D;57460;47.134;19.888;2023-04-01T23:33:30;11.04;62.30
70089;HTU21D;57460;47.134;19.888;2023-04-01T23:36:10;11.04;62.29
70089;HTU21D;57460;47.134;19.888;2023-04-01T23:38:40;11.07;62.31
70089;HTU21D;57460;47.134;19.888;2023-04-01T23:41:18;11.08;62.24
70089;HTU21D;57460;47.134;19.888;2023-04-01T23:43:57;11.22;61.73
70089;HTU21D;57460;47.134;19.888;2023-04-01T23:46:24;11.16;62.00
70089;HTU21D;57460;47.134;19.888;2023-04-01T23:48:52;11.15;62.25
70089;HTU21D;57460;47.134;19.888;2023-04-01T23:51:36;11.07;62.35
70089;HTU21D;57460;47.134;19.888;2023-04-01T23:54:23;11.05;62.51
70089;HTU21D;57460;47.134;19.888;2023-04-01T23:56:55;11.19;61.97
70089;HTU21D;57460;47.134;19.888;2023-04-01T23:59:34;11.09;62.39
